createdAt,value
2018-01-16T01:23:28.802Z,42.10
2018-01-16T01:28:31.826Z,30.23
2018-01-16T01:33:35.457Z,26.13
2018-01-16T01:38:39.200Z,26.97
2018-01-16T01:43:43.494Z,27.80
2018-01-16T01:48:47.538Z,17.67
2018-01-16T01:53:50.608Z,22.07
2018-01-16T01:58:53.936Z,27.87
2018-01-16T02:03:57.120Z,7.67
2018-01-16T02:09:01.045Z,30.20
2018-01-16T02:14:04.415Z,23.80
2018-01-16T02:19:07.732Z,23.07
2018-01-16T02:24:10.913Z,22.33
2018-01-16T02:29:14.105Z,26.43
2018-01-16T02:34:17.514Z,31.40
2018-01-16T02:39:21.359Z,20.60
2018-01-16T02:44:24.344Z,21.47
2018-01-16T02:49:28.976Z,25.70
2018-01-16T02:54:32.796Z,31.37
2018-01-16T02:59:37.487Z,29.97
2018-01-16T03:04:41.179Z,21.23
2018-01-16T03:09:44.192Z,27.20
2018-01-16T03:14:47.487Z,21.07
2018-01-16T03:19:53.041Z,35.30
2018-01-16T03:24:56.689Z,27.20
2018-01-16T03:30:00.366Z,32.70
2018-01-16T03:35:03.058Z,15.33
2018-01-16T03:40:06.387Z,16.83
2018-01-16T03:45:10.158Z,28.47
2018-01-16T03:50:13.697Z,36.60
2018-01-16T03:55:17.129Z,29.30
2018-01-16T04:00:20.686Z,35.70
2018-01-16T04:05:23.858Z,23.23
2018-01-16T04:10:27.148Z,29.77
2018-01-16T04:15:30.768Z,38.90
2018-01-16T04:20:34.053Z,37.83
2018-01-16T04:25:38.995Z,29.27
2018-01-16T04:30:44.356Z,31.80
2018-01-16T04:35:52.247Z,24.50
2018-01-16T04:40:56.693Z,34.20
2018-01-16T04:45:59.921Z,31.67
2018-01-16T04:51:06.109Z,28.97
2018-01-16T04:56:10.833Z,22.80
2018-01-16T05:01:14.752Z,35.07
2018-01-16T05:06:17.849Z,26.57
2018-01-16T05:11:20.970Z,19.77
2018-01-16T05:16:25.554Z,24.30
2018-01-16T05:21:30.876Z,21.17
2018-01-16T05:26:39.670Z,16.40
2018-01-16T05:31:43.705Z,28.67
2018-01-16T05:36:50.271Z,19.17
2018-01-16T05:41:53.310Z,22.60
2018-01-16T05:46:56.303Z,28.10
2018-01-16T05:51:58.971Z,32.37
2018-01-16T05:57:02.172Z,28.87
2018-01-16T06:02:05.368Z,20.97
2018-01-16T06:07:08.087Z,31.50
2018-01-16T06:12:12.472Z,24.40
2018-01-16T06:17:16.053Z,27.40
2018-01-16T06:22:20.575Z,21.03
2018-01-16T06:27:24.186Z,22.10
2018-01-16T06:32:27.020Z,27.17
2018-01-16T06:37:31.968Z,27.43
2018-01-16T06:42:35.317Z,29.57
2018-01-16T06:47:39.144Z,29.00
2018-01-16T06:52:42.872Z,34.37
2018-01-16T06:57:46.891Z,23.57
2018-01-16T07:02:49.913Z,25.80
2018-01-16T07:07:57.345Z,29.80
2018-01-16T07:13:01.001Z,30.77
2018-01-16T07:18:03.978Z,34.27
2018-01-16T07:23:07.693Z,27.07
2018-01-16T07:28:11.592Z,36.00
2018-01-16T07:33:14.892Z,34.57
2018-01-16T07:38:18.423Z,36.23
2018-01-16T07:43:22.610Z,32.63
2018-01-16T07:48:28.972Z,30.97
2018-01-16T07:53:39.704Z,32.00
2018-01-16T08:03:56.775Z,30.90
2018-01-16T08:08:59.715Z,22.53
2018-01-16T08:14:03.763Z,26.23
2018-01-16T08:19:08.543Z,32.97
2018-01-16T08:24:11.189Z,28.93
2018-01-16T08:29:13.956Z,22.23
2018-01-16T08:34:20.491Z,26.47
2018-01-16T08:39:25.272Z,21.27
2018-01-16T08:44:32.864Z,20.97
2018-01-16T08:49:36.099Z,20.30
2018-01-16T08:54:39.796Z,18.50
2018-01-16T08:59:44.573Z,30.50
2018-01-16T09:04:48.351Z,19.20
2018-01-16T09:09:53.688Z,14.93
2018-01-16T09:14:59.355Z,1.10
2018-01-16T09:20:03.232Z,1.23
2018-01-16T09:25:09.729Z,0.77
2018-01-16T09:40:45.195Z,0.60
2018-01-16T09:45:55.571Z,0.73
2018-01-16T09:51:00.442Z,1.10
2018-01-16T09:56:04.826Z,0.93
2018-01-16T10:01:10.483Z,1.17
2018-01-16T10:06:13.602Z,0.90
2018-01-16T10:11:19.349Z,2.70
2018-01-16T10:16:35.096Z,1.07
2018-01-16T10:21:53.433Z,0.67
2018-01-16T10:27:00.905Z,3.43
2018-01-16T11:35:16.679Z,0.70
2018-01-16T11:40:25.818Z,0.57
2018-01-16T11:45:40.226Z,2.00
2018-01-16T11:50:45.408Z,0.70
2018-01-16T12:02:01.800Z,3.63
2018-01-16T14:06:13.123Z,0.60
2018-01-16T14:11:20.379Z,1.07
2018-01-16T14:16:25.696Z,0.80
2018-01-16T14:27:58.838Z,2.03
2018-01-16T14:33:40.007Z,0.87
2018-01-16T14:44:40.461Z,1.03
2018-01-16T14:50:02.524Z,0.70
2018-01-16T15:00:48.560Z,0.60
2018-01-16T20:30:22.956Z,1.73
2018-01-16T20:35:27.084Z,2.00
2018-01-16T20:56:34.314Z,1.57
2018-01-16T21:35:30.521Z,0.63
2018-01-16T21:45:47.592Z,2.57
2018-01-16T21:56:02.311Z,2.10
2018-01-16T22:17:43.402Z,1.30
